Time;durP1;ratioP1;P1;durP2;ratioP2;P2;SDS_P1;SDS_P2;PMS_P1;PMS_P2;Temp;Humidity;BMP_temperature;BMP_pressure;BME280_temperature;BME280_humidity;BME280_pressure;Samples;Min_cycle;Max_cycle;Signal;HPM_P1;HPM_P2
2023/02/02 00:00:34;;;;;;;;;;;5.40;99.90;;;;;;4999285;28;19922;-65
2023/02/02 00:03:00;;;;;;;;;;;5.50;99.90;;;;;;4989031;28;19976;-66
2023/02/02 00:05:26;;;;;;;;;;;5.40;99.90;;;;;;4983984;28;19980;-66
2023/02/02 00:07:52;;;;;;;;;;;5.40;99.90;;;;;;4985397;28;20088;-65
2023/02/02 00:10:17;;;;;;;;;;;5.40;99.90;;;;;;4971242;28;20372;-65
2023/02/02 00:12:43;;;;;;;;;;;5.50;99.90;;;;;;4989530;28;19914;-65
2023/02/02 00:15:09;;;;;;;;;;;5.40;99.90;;;;;;4986590;28;19926;-65
2023/02/02 00:17:34;;;;;;;;;;;5.40;99.90;;;;;;4986450;28;19933;-65
2023/02/02 00:20:00;;;;;;;;;;;5.30;99.90;;;;;;4985088;28;19936;-65
2023/02/02 00:22:26;;;;;;;;;;;5.30;99.90;;;;;;4984348;28;19921;-66
2023/02/02 00:24:52;;;;;;;;;;;5.20;99.90;;;;;;4987963;28;19959;-65
2023/02/02 00:27:18;;;;;;;;;;;5.20;99.90;;;;;;4989367;28;19918;-65
2023/02/02 00:29:44;;;;;;;;;;;5.20;99.90;;;;;;4988366;28;19988;-65
2023/02/02 00:32:10;;;;;;;;;;;5.20;99.90;;;;;;4987170;28;19914;-64
2023/02/02 00:34:35;;;;;;;;;;;5.20;99.90;;;;;;4985510;28;19956;-65
2023/02/02 00:37:01;;;;;;;;;;;5.20;99.90;;;;;;4977905;28;19989;-64
2023/02/02 00:39:27;;;;;;;;;;;5.30;99.90;;;;;;4986583;28;19918;-64
2023/02/02 00:41:53;;;;;;;;;;;5.30;99.90;;;;;;4996158;28;19909;-65
2023/02/02 00:47:03;;;;;;;;;;;5.30;99.90;;;;;;4988617;28;20335;-65
2023/02/02 00:49:28;;;;;;;;;;;5.20;99.90;;;;;;4977393;28;19914;-65
2023/02/02 00:51:54;;;;;;;;;;;5.20;99.90;;;;;;4991284;28;19913;-65
2023/02/02 00:54:20;;;;;;;;;;;5.20;99.90;;;;;;4998822;28;19929;-66
2023/02/02 00:56:46;;;;;;;;;;;5.30;99.90;;;;;;4983943;28;19914;-65
2023/02/02 00:59:11;;;;;;;;;;;5.20;99.90;;;;;;4994763;28;19910;-64
2023/02/02 01:01:37;;;;;;;;;;;5.20;99.90;;;;;;4997247;28;19965;-64
2023/02/02 01:04:03;;;;;;;;;;;5.10;99.90;;;;;;4996524;28;19920;-66
2023/02/02 01:06:28;;;;;;;;;;;5.00;99.90;;;;;;4998003;28;19937;-66
2023/02/02 01:08:54;;;;;;;;;;;5.00;99.90;;;;;;4995560;28;19917;-65
2023/02/02 01:11:20;;;;;;;;;;;5.00;99.90;;;;;;4988138;28;19937;-65
2023/02/02 01:13:46;;;;;;;;;;;5.00;99.90;;;;;;4984425;28;19913;-66
2023/02/02 01:16:11;;;;;;;;;;;5.00;99.90;;;;;;4984551;28;19918;-65
2023/02/02 01:18:37;;;;;;;;;;;5.00;99.90;;;;;;4985909;28;19925;-65
2023/02/02 01:21:04;;;;;;;;;;;5.00;99.90;;;;;;4986919;28;20007;-65
2023/02/02 01:23:30;;;;;;;;;;;4.90;99.90;;;;;;4985755;28;19994;-66
2023/02/02 01:25:57;;;;;;;;;;;5.00;99.90;;;;;;4986522;28;19914;-64
2023/02/02 01:28:23;;;;;;;;;;;5.00;99.90;;;;;;4986073;28;19922;-63
2023/02/02 01:30:48;;;;;;;;;;;5.00;99.90;;;;;;4983708;28;20368;-66
2023/02/02 01:33:15;;;;;;;;;;;5.00;99.90;;;;;;4987731;28;19918;-65
2023/02/02 01:35:47;;;;;;;;;;;5.10;99.90;;;;;;5002220;28;19914;-66
2023/02/02 01:38:13;;;;;;;;;;;5.20;99.90;;;;;;5000882;28;19910;-66
2023/02/02 01:40:45;;;;;;;;;;;5.20;99.90;;;;;;4996858;28;19965;-65
2023/02/02 01:43:49;;;;;;;;;;;5.20;99.90;;;;;;4996415;28;20190;-66
2023/02/02 01:46:14;;;;;;;;;;;5.10;99.90;;;;;;4997826;28;20299;-64
2023/02/02 01:48:42;;;;;;;;;;;5.10;99.90;;;;;;4998024;28;19945;-66
2023/02/02 01:51:10;;;;;;;;;;;5.20;99.90;;;;;;4999132;28;19910;-66
2023/02/02 01:53:36;;;;;;;;;;;5.20;99.90;;;;;;4996763;28;19913;-66
2023/02/02 01:56:04;;;;;;;;;;;5.10;99.90;;;;;;4982704;28;19917;-65
2023/02/02 01:58:32;;;;;;;;;;;5.10;99.90;;;;;;4984425;28;19922;-63
2023/02/02 02:00:58;;;;;;;;;;;5.10;99.90;;;;;;4993308;28;19914;-66
2023/02/02 02:03:24;;;;;;;;;;;5.10;99.90;;;;;;4990996;28;19965;-66
2023/02/02 02:05:55;;;;;;;;;;;5.10;99.90;;;;;;4978620;28;19917;-65
2023/02/02 02:08:23;;;;;;;;;;;5.10;99.90;;;;;;4982809;28;20292;-66
2023/02/02 02:10:48;;;;;;;;;;;5.10;99.90;;;;;;4980283;28;19920;-65
2023/02/02 02:13:15;;;;;;;;;;;5.10;99.90;;;;;;4969937;28;19921;-65
2023/02/02 02:18:37;;;;;;;;;;;5.20;99.90;;;;;;4984513;28;19964;-65
2023/02/02 02:27:24;;;;;;;;;;;5.10;99.90;;;;;;4980875;28;19936;-64
2023/02/02 02:29:50;;;;;;;;;;;5.10;99.90;;;;;;4986503;28;20052;-64
2023/02/02 02:32:26;;;;;;;;;;;5.20;99.90;;;;;;4977731;28;19985;-66
2023/02/02 02:34:54;;;;;;;;;;;5.20;99.90;;;;;;4988149;28;20344;-66
2023/02/02 02:37:29;;;;;;;;;;;5.30;99.90;;;;;;4993284;28;20399;-65
2023/02/02 02:39:55;;;;;;;;;;;5.40;99.90;;;;;;4994675;28;19914;-65
2023/02/02 02:42:22;;;;;;;;;;;5.40;99.90;;;;;;4973240;28;20297;-65
2023/02/02 02:44:48;;;;;;;;;;;5.40;99.90;;;;;;4986540;28;20016;-64
2023/02/02 02:47:15;;;;;;;;;;;5.40;99.90;;;;;;4976503;28;19968;-66
2023/02/02 02:49:42;;;;;;;;;;;5.30;99.90;;;;;;4975485;28;20010;-66
2023/02/02 02:52:08;;;;;;;;;;;5.40;99.90;;;;;;4984901;28;20368;-65
2023/02/02 02:54:50;;;;;;;;;;;5.40;99.90;;;;;;4975934;28;20014;-66
2023/02/02 02:57:34;;;;;;;;;;;5.40;99.90;;;;;;4987018;28;19997;-65
2023/02/02 03:00:18;;;;;;;;;;;5.50;99.90;;;;;;4975581;28;19917;-65
2023/02/02 03:02:52;;;;;;;;;;;5.50;99.90;;;;;;4999846;28;19914;-66
2023/02/02 03:05:21;;;;;;;;;;;5.60;99.90;;;;;;4980618;28;19956;-66
2023/02/02 03:07:49;;;;;;;;;;;5.60;99.90;;;;;;4988932;28;19910;-66
2023/02/02 03:10:17;;;;;;;;;;;5.60;99.90;;;;;;4987843;28;19985;-66
2023/02/02 03:12:47;;;;;;;;;;;5.60;99.90;;;;;;4984443;28;19918;-66
2023/02/02 03:15:13;;;;;;;;;;;5.60;99.90;;;;;;4983881;28;19929;-66
2023/02/02 03:17:39;;;;;;;;;;;5.60;99.90;;;;;;4987403;28;20288;-66
2023/02/02 03:20:05;;;;;;;;;;;5.60;99.90;;;;;;4974810;28;19924;-66
2023/02/02 03:22:30;;;;;;;;;;;5.60;99.90;;;;;;4991169;28;19917;-66
2023/02/02 03:24:58;;;;;;;;;;;5.60;99.90;;;;;;4991958;28;19920;-65
2023/02/02 03:27:24;;;;;;;;;;;5.60;99.90;;;;;;4987365;28;20073;-65
2023/02/02 03:29:50;;;;;;;;;;;5.50;99.90;;;;;;4990551;28;19914;-65
2023/02/02 03:32:16;;;;;;;;;;;5.50;99.90;;;;;;4991430;28;21799;-65
2023/02/02 03:34:41;;;;;;;;;;;5.50;99.90;;;;;;4989200;28;19914;-63
2023/02/02 03:37:07;;;;;;;;;;;5.50;99.90;;;;;;4986698;28;19918;-64
2023/02/02 03:39:32;;;;;;;;;;;5.50;99.90;;;;;;4988209;28;19974;-66
2023/02/02 03:41:58;;;;;;;;;;;5.50;99.90;;;;;;4986951;28;20002;-65
2023/02/02 03:44:24;;;;;;;;;;;5.60;99.90;;;;;;4983526;28;20005;-65
2023/02/02 03:46:52;;;;;;;;;;;5.60;99.90;;;;;;4986681;28;19952;-65
2023/02/02 03:49:17;;;;;;;;;;;5.60;99.90;;;;;;4987386;28;20016;-66
2023/02/02 03:51:43;;;;;;;;;;;5.60;99.90;;;;;;4986716;28;20148;-65
2023/02/02 03:54:08;;;;;;;;;;;5.50;99.90;;;;;;4985096;28;19922;-65
2023/02/02 03:56:34;;;;;;;;;;;5.50;99.90;;;;;;4982536;28;19926;-65
2023/02/02 03:59:00;;;;;;;;;;;5.60;99.90;;;;;;4986254;28;20400;-66
2023/02/02 04:01:27;;;;;;;;;;;5.60;99.90;;;;;;4983085;28;19917;-66
2023/02/02 04:03:53;;;;;;;;;;;5.70;99.90;;;;;;4984459;28;19921;-66
2023/02/02 04:06:19;;;;;;;;;;;5.80;99.90;;;;;;4988522;28;19914;-64
2023/02/02 04:08:45;;;;;;;;;;;5.80;99.90;;;;;;4987717;28;20002;-66
2023/02/02 04:11:11;;;;;;;;;;;5.80;99.90;;;;;;4986508;28;19994;-65
2023/02/02 04:13:36;;;;;;;;;;;5.70;99.90;;;;;;4968825;28;19918;-65
2023/02/02 04:16:02;;;;;;;;;;;5.70;99.90;;;;;;4982392;28;19922;-65
2023/02/02 04:18:28;;;;;;;;;;;5.70;99.90;;;;;;4988155;28;19952;-66
2023/02/02 04:21:00;;;;;;;;;;;5.80;99.90;;;;;;4983975;28;19918;-66
2023/02/02 04:23:26;;;;;;;;;;;5.80;99.90;;;;;;4987055;28;19914;-66
2023/02/02 04:25:52;;;;;;;;;;;5.80;99.90;;;;;;4970631;28;20387;-65
2023/02/02 04:28:18;;;;;;;;;;;5.80;99.90;;;;;;4987026;28;19914;-66
2023/02/02 04:30:44;;;;;;;;;;;5.80;99.90;;;;;;4991333;28;20449;-65
2023/02/02 04:33:09;;;;;;;;;;;5.80;99.90;;;;;;4987222;28;19914;-66
2023/02/02 04:35:35;;;;;;;;;;;5.90;99.90;;;;;;4987999;28;20364;-65
2023/02/02 04:38:00;;;;;;;;;;;6.00;99.90;;;;;;4990192;28;19913;-66
2023/02/02 04:40:26;;;;;;;;;;;6.10;99.90;;;;;;4979821;28;20013;-66
2023/02/02 04:42:52;;;;;;;;;;;6.10;99.90;;;;;;4984977;28;20645;-66
2023/02/02 04:45:17;;;;;;;;;;;6.10;99.90;;;;;;4996251;28;19916;-65
2023/02/02 04:47:43;;;;;;;;;;;6.10;99.90;;;;;;4995564;28;19916;-66
2023/02/02 04:50:09;;;;;;;;;;;6.00;99.90;;;;;;4984685;28;19928;-65
2023/02/02 04:52:35;;;;;;;;;;;6.20;99.90;;;;;;4985662;28;19937;-66
2023/02/02 04:55:00;;;;;;;;;;;6.20;99.90;;;;;;4985136;28;19922;-66
2023/02/02 04:57:26;;;;;;;;;;;6.10;99.90;;;;;;4986693;28;19914;-66
2023/02/02 04:59:52;;;;;;;;;;;6.00;99.90;;;;;;4987598;28;20300;-66
2023/02/02 05:02:18;;;;;;;;;;;6.00;99.90;;;;;;4987232;28;19914;-65
2023/02/02 05:04:44;;;;;;;;;;;5.90;99.90;;;;;;4983990;28;20034;-65
2023/02/02 05:07:09;;;;;;;;;;;5.80;99.90;;;;;;4989029;28;19957;-66
2023/02/02 05:09:35;;;;;;;;;;;5.80;99.90;;;;;;4981848;28;20801;-66
2023/02/02 05:12:00;;;;;;;;;;;5.90;99.90;;;;;;4982294;28;19998;-65
2023/02/02 05:14:26;;;;;;;;;;;5.90;99.90;;;;;;4983363;28;19918;-65
2023/02/02 05:16:52;;;;;;;;;;;5.80;99.90;;;;;;4982470;28;19918;-65
2023/02/02 05:19:18;;;;;;;;;;;5.80;99.90;;;;;;4983257;28;19948;-66
2023/02/02 05:21:48;;;;;;;;;;;5.80;99.90;;;;;;4982468;28;20671;-65
2023/02/02 05:24:14;;;;;;;;;;;5.80;99.90;;;;;;4980195;28;19918;-65
2023/02/02 05:26:40;;;;;;;;;;;5.80;99.90;;;;;;4970126;28;19921;-66
2023/02/02 05:29:06;;;;;;;;;;;5.80;99.90;;;;;;4982877;28;19921;-65
2023/02/02 05:31:32;;;;;;;;;;;5.70;99.90;;;;;;4981252;28;19928;-66
2023/02/02 05:33:58;;;;;;;;;;;5.80;99.90;;;;;;4980394;28;20282;-66
2023/02/02 05:36:23;;;;;;;;;;;5.80;99.90;;;;;;4982710;28;19924;-66
2023/02/02 05:38:49;;;;;;;;;;;5.80;99.90;;;;;;4981780;28;20291;-64
2023/02/02 05:41:14;;;;;;;;;;;5.60;99.90;;;;;;4979573;28;20726;-65
2023/02/02 05:43:40;;;;;;;;;;;5.60;99.90;;;;;;4980102;28;19918;-65
2023/02/02 05:46:06;;;;;;;;;;;5.60;99.90;;;;;;4979210;28;20044;-66
2023/02/02 05:48:31;;;;;;;;;;;5.60;99.90;;;;;;4983211;28;20029;-66
2023/02/02 05:51:06;;;;;;;;;;;5.60;99.90;;;;;;4978526;28;19922;-64
2023/02/02 05:53:32;;;;;;;;;;;5.50;99.90;;;;;;4980423;28;20416;-66
2023/02/02 05:55:58;;;;;;;;;;;5.50;99.90;;;;;;4981309;28;19943;-66
2023/02/02 05:58:24;;;;;;;;;;;5.60;99.90;;;;;;4980020;28;19967;-64
2023/02/02 06:00:50;;;;;;;;;;;5.60;99.90;;;;;;4982627;28;19945;-66
2023/02/02 06:03:16;;;;;;;;;;;5.70;99.90;;;;;;4990087;28;19975;-66
2023/02/02 06:05:41;;;;;;;;;;;5.70;99.90;;;;;;4976865;28;19954;-66
2023/02/02 06:08:07;;;;;;;;;;;5.70;99.90;;;;;;4987038;28;19914;-66
2023/02/02 06:10:33;;;;;;;;;;;5.80;99.90;;;;;;4988967;28;19913;-64
2023/02/02 06:12:58;;;;;;;;;;;5.90;99.90;;;;;;4988200;28;20352;-66
2023/02/02 06:15:26;;;;;;;;;;;5.90;99.90;;;;;;4980760;28;19930;-65
2023/02/02 06:17:52;;;;;;;;;;;5.90;99.90;;;;;;5000786;28;19917;-65
2023/02/02 06:20:17;;;;;;;;;;;6.00;99.90;;;;;;4999801;28;19930;-65
2023/02/02 06:22:43;;;;;;;;;;;6.00;99.90;;;;;;4993046;28;20555;-66
2023/02/02 06:25:08;;;;;;;;;;;6.00;99.90;;;;;;4985799;28;19964;-65
2023/02/02 06:27:34;;;;;;;;;;;5.90;99.90;;;;;;4997262;28;19925;-65
2023/02/02 06:30:00;;;;;;;;;;;6.00;99.90;;;;;;4994818;28;19925;-65
2023/02/02 06:32:27;;;;;;;;;;;5.90;99.90;;;;;;4996478;28;20295;-66
2023/02/02 06:34:53;;;;;;;;;;;5.90;99.90;;;;;;4992395;28;19914;-65
2023/02/02 06:37:18;;;;;;;;;;;5.90;99.90;;;;;;4994748;28;19983;-64
2023/02/02 06:39:44;;;;;;;;;;;5.90;99.90;;;;;;4993301;28;19922;-64
2023/02/02 06:42:10;;;;;;;;;;;6.00;99.90;;;;;;4992624;28;19967;-65
2023/02/02 06:44:35;;;;;;;;;;;6.00;99.90;;;;;;4992117;28;19914;-66
2023/02/02 06:47:01;;;;;;;;;;;5.90;99.90;;;;;;4993123;28;20354;-65
2023/02/02 06:49:26;;;;;;;;;;;5.90;99.90;;;;;;4991274;28;19909;-65
2023/02/02 06:51:52;;;;;;;;;;;6.10;99.90;;;;;;4992277;28;19910;-64
2023/02/02 06:54:17;;;;;;;;;;;6.00;99.90;;;;;;4992109;28;19910;-66
2023/02/02 06:56:43;;;;;;;;;;;6.00;99.90;;;;;;4989398;28;20426;-66
2023/02/02 06:59:09;;;;;;;;;;;5.90;99.90;;;;;;4987007;28;19914;-66
2023/02/02 07:01:34;;;;;;;;;;;5.80;99.90;;;;;;4990368;28;19930;-65
2023/02/02 07:04:00;;;;;;;;;;;5.80;99.90;;;;;;4991893;28;20398;-66
2023/02/02 07:06:27;;;;;;;;;;;5.80;99.90;;;;;;4974293;28;19956;-65
2023/02/02 07:08:53;;;;;;;;;;;5.90;99.90;;;;;;5002938;28;20025;-65
2023/02/02 07:11:19;;;;;;;;;;;5.90;99.90;;;;;;4989271;28;19918;-66
2023/02/02 07:13:45;;;;;;;;;;;5.90;99.90;;;;;;5006518;28;19991;-66
2023/02/02 07:16:12;;;;;;;;;;;5.90;99.90;;;;;;4994230;28;19918;-65
2023/02/02 07:18:38;;;;;;;;;;;6.30;99.90;;;;;;4992042;28;19910;-65
2023/02/02 07:21:04;;;;;;;;;;;6.60;99.90;;;;;;4988545;28;19921;-64
2023/02/02 07:23:30;;;;;;;;;;;6.80;99.90;;;;;;4991856;28;19909;-66
2023/02/02 07:26:03;;;;;;;;;;;7.00;99.90;;;;;;4991707;28;20335;-66
2023/02/02 07:28:29;;;;;;;;;;;7.10;99.90;;;;;;4986896;28;20387;-66
2023/02/02 07:30:55;;;;;;;;;;;6.90;99.90;;;;;;4989506;28;19914;-66
2023/02/02 07:33:20;;;;;;;;;;;6.60;99.90;;;;;;4997011;28;19913;-66
2023/02/02 07:35:46;;;;;;;;;;;6.60;99.90;;;;;;4985072;28;19966;-66
2023/02/02 07:38:11;;;;;;;;;;;6.50;99.90;;;;;;4995645;28;20371;-66
2023/02/02 07:40:37;;;;;;;;;;;6.40;99.90;;;;;;4992626;28;19918;-66
2023/02/02 07:43:03;;;;;;;;;;;6.30;99.90;;;;;;4992524;28;20353;-66
2023/02/02 07:45:29;;;;;;;;;;;6.40;99.90;;;;;;4991238;28;19917;-66
2023/02/02 07:47:56;;;;;;;;;;;6.40;99.90;;;;;;4992734;28;19910;-68
2023/02/02 07:50:22;;;;;;;;;;;6.40;99.90;;;;;;4993990;28;19942;-67
2023/02/02 07:52:47;;;;;;;;;;;6.40;99.90;;;;;;4988131;28;20344;-68
2023/02/02 07:55:13;;;;;;;;;;;6.40;99.90;;;;;;4998448;28;19917;-68
2023/02/02 07:57:39;;;;;;;;;;;6.50;99.90;;;;;;5000436;28;19917;-68
2023/02/02 08:00:05;;;;;;;;;;;6.50;99.90;;;;;;4989185;28;20394;-68
2023/02/02 08:02:30;;;;;;;;;;;6.50;99.90;;;;;;5002096;28;19918;-68
2023/02/02 08:04:56;;;;;;;;;;;6.60;99.90;;;;;;5000991;28;19967;-67
2023/02/02 08:07:23;;;;;;;;;;;6.70;99.90;;;;;;4994034;28;19964;-68
2023/02/02 08:09:49;;;;;;;;;;;6.60;99.90;;;;;;4994025;28;19960;-67
2023/02/02 08:12:15;;;;;;;;;;;6.60;99.90;;;;;;4992896;28;19985;-67
2023/02/02 08:14:41;;;;;;;;;;;6.60;99.90;;;;;;4986755;28;19984;-68
2023/02/02 08:17:06;;;;;;;;;;;6.60;99.90;;;;;;4986242;28;19925;-64
2023/02/02 08:19:32;;;;;;;;;;;6.70;99.90;;;;;;4994292;28;20372;-67
2023/02/02 08:21:58;;;;;;;;;;;6.80;99.90;;;;;;4989911;28;19914;-66
2023/02/02 08:24:23;;;;;;;;;;;6.70;99.90;;;;;;4991213;28;19925;-66
2023/02/02 08:26:49;;;;;;;;;;;6.90;99.90;;;;;;4992559;28;19924;-66
2023/02/02 08:29:16;;;;;;;;;;;6.90;99.90;;;;;;4994876;28;20563;-66
2023/02/02 08:31:42;;;;;;;;;;;6.90;99.90;;;;;;4993441;28;19936;-66
2023/02/02 08:34:08;;;;;;;;;;;6.90;99.90;;;;;;4988278;28;20299;-66
2023/02/02 08:36:34;;;;;;;;;;;7.00;99.90;;;;;;4985319;28;19921;-66
2023/02/02 08:39:01;;;;;;;;;;;7.10;99.90;;;;;;4999994;28;20016;-66
2023/02/02 08:41:27;;;;;;;;;;;7.10;99.90;;;;;;4998871;28;19996;-66
2023/02/02 08:43:52;;;;;;;;;;;7.00;99.90;;;;;;4999090;28;19936;-65
2023/02/02 08:46:19;;;;;;;;;;;7.20;99.90;;;;;;4993692;28;20314;-66
2023/02/02 08:48:45;;;;;;;;;;;7.20;99.90;;;;;;4992083;28;19914;-66
2023/02/02 08:51:13;;;;;;;;;;;7.30;99.90;;;;;;4993007;28;19910;-66
2023/02/02 08:53:41;;;;;;;;;;;7.40;99.90;;;;;;5002028;28;19941;-67
2023/02/02 08:56:09;;;;;;;;;;;7.50;99.90;;;;;;4994683;28;19921;-66
2023/02/02 08:58:34;;;;;;;;;;;7.50;99.90;;;;;;4995671;28;19998;-67
2023/02/02 09:01:05;;;;;;;;;;;7.60;99.90;;;;;;4998171;28;20012;-67
2023/02/02 09:03:30;;;;;;;;;;;7.50;99.90;;;;;;4989974;28;19918;-67
2023/02/02 09:05:56;;;;;;;;;;;7.60;99.90;;;;;;4991786;28;19910;-67
2023/02/02 09:08:22;;;;;;;;;;;7.60;99.90;;;;;;4992097;28;19972;-66
2023/02/02 09:10:47;;;;;;;;;;;7.70;99.90;;;;;;4987298;28;19941;-67
2023/02/02 09:13:13;;;;;;;;;;;7.70;99.90;;;;;;4989389;28;19933;-67
2023/02/02 09:15:39;;;;;;;;;;;7.80;99.90;;;;;;4986545;28;19988;-67
2023/02/02 09:18:04;;;;;;;;;;;7.80;99.90;;;;;;5003373;28;19921;-70
2023/02/02 09:20:30;;;;;;;;;;;8.00;99.90;;;;;;4990030;28;19918;-67
2023/02/02 09:22:56;;;;;;;;;;;8.10;99.90;;;;;;4988405;28;19914;-67
2023/02/02 09:25:23;;;;;;;;;;;8.10;99.90;;;;;;4997665;28;20014;-68
2023/02/02 09:27:49;;;;;;;;;;;8.20;99.90;;;;;;4999061;28;19913;-65
2023/02/02 09:30:18;;;;;;;;;;;8.20;99.90;;;;;;4986793;28;19920;-65
2023/02/02 09:32:44;;;;;;;;;;;8.30;99.90;;;;;;4985545;28;19922;-65
2023/02/02 09:35:10;;;;;;;;;;;8.30;99.90;;;;;;4991893;28;20009;-67
2023/02/02 09:37:35;;;;;;;;;;;8.40;99.90;;;;;;4989128;28;19922;-66
2023/02/02 09:40:01;;;;;;;;;;;8.50;99.90;;;;;;4996223;28;19917;-67
2023/02/02 09:42:33;;;;;;;;;;;8.50;99.90;;;;;;4988335;28;19937;-68
2023/02/02 09:44:59;;;;;;;;;;;8.50;99.90;;;;;;4994319;28;19914;-68
2023/02/02 09:47:35;;;;;;;;;;;8.60;99.90;;;;;;4987054;28;19913;-67
2023/02/02 09:50:04;;;;;;;;;;;8.60;99.90;;;;;;5001973;28;19932;-68
2023/02/02 09:52:29;;;;;;;;;;;8.70;99.90;;;;;;4983488;28;19914;-68
2023/02/02 09:54:58;;;;;;;;;;;8.70;99.90;;;;;;4999101;28;19932;-66
2023/02/02 09:57:30;;;;;;;;;;;8.80;99.90;;;;;;4992974;28;20016;-66
2023/02/02 09:59:56;;;;;;;;;;;8.80;99.90;;;;;;5000002;28;20342;-68
2023/02/02 10:02:32;;;;;;;;;;;8.90;99.90;;;;;;5000131;28;19914;-67
2023/02/02 10:05:00;;;;;;;;;;;8.90;99.90;;;;;;4989986;28;19953;-66
2023/02/02 10:07:31;;;;;;;;;;;8.90;99.90;;;;;;5002281;28;19916;-67
2023/02/02 10:09:58;;;;;;;;;;;8.90;99.90;;;;;;5000295;28;19964;-68
2023/02/02 10:12:30;;;;;;;;;;;8.90;99.90;;;;;;4989291;28;19918;-69
2023/02/02 10:15:16;;;;;;;;;;;8.90;99.90;;;;;;4989612;28;19914;-68
2023/02/02 10:17:45;;;;;;;;;;;9.00;99.90;;;;;;5002758;28;20056;-68
2023/02/02 10:20:14;;;;;;;;;;;9.10;99.90;;;;;;4999573;28;19967;-69
2023/02/02 10:22:40;;;;;;;;;;;9.10;99.90;;;;;;4992496;28;19921;-68
2023/02/02 10:25:10;;;;;;;;;;;9.10;99.90;;;;;;4995239;28;19921;-67
2023/02/02 10:27:37;;;;;;;;;;;9.20;99.90;;;;;;4998139;28;19954;-68
2023/02/02 10:30:08;;;;;;;;;;;9.20;99.90;;;;;;4986746;28;19914;-69
2023/02/02 10:32:41;;;;;;;;;;;9.20;99.90;;;;;;4983515;28;19918;-68
2023/02/02 10:35:17;;;;;;;;;;;9.30;99.90;;;;;;4994763;28;19914;-68
2023/02/02 10:37:46;;;;;;;;;;;9.40;99.90;;;;;;4985046;28;19921;-68
2023/02/02 10:40:21;;;;;;;;;;;9.40;99.90;;;;;;4993220;28;19913;-68
2023/02/02 10:43:44;;;;;;;;;;;9.40;99.90;;;;;;5004477;28;19914;-68
2023/02/02 10:45:35;;;;;;;;;;;9.40;99.90;;;;;;4998819;28;19917;-68
2023/02/02 10:48:02;;;;;;;;;;;9.40;99.90;;;;;;5002591;28;19976;-68
2023/02/02 10:50:27;;;;;;;;;;;9.40;99.90;;;;;;4975876;28;19964;-68
2023/02/02 10:52:54;;;;;;;;;;;9.40;99.90;;;;;;4987567;28;19913;-68
2023/02/02 10:55:39;;;;;;;;;;;9.50;99.90;;;;;;4991890;28;19929;-68
2023/02/02 10:58:04;;;;;;;;;;;9.50;99.90;;;;;;5002926;28;20430;-68
2023/02/02 11:00:45;;;;;;;;;;;9.50;99.90;;;;;;4998023;28;19922;-68
2023/02/02 11:03:12;;;;;;;;;;;9.50;99.90;;;;;;4989836;28;20036;-68
2023/02/02 11:08:35;;;;;;;;;;;9.50;99.90;;;;;;4993467;28;19921;-67
2023/02/02 11:11:12;;;;;;;;;;;9.50;99.90;;;;;;4991764;28;19914;-67
2023/02/02 11:13:41;;;;;;;;;;;9.50;99.90;;;;;;4993732;28;19938;-68
2023/02/02 11:16:15;;;;;;;;;;;9.50;99.90;;;;;;4994822;28;20292;-67
2023/02/02 11:18:42;;;;;;;;;;;9.50;99.90;;;;;;4992181;28;19921;-66
2023/02/02 11:21:27;;;;;;;;;;;9.50;99.90;;;;;;4992490;28;19914;-67
2023/02/02 11:23:55;;;;;;;;;;;9.60;99.90;;;;;;4993847;28;19965;-67
2023/02/02 11:26:21;;;;;;;;;;;9.60;99.90;;;;;;4987220;28;19914;-67
2023/02/02 11:28:48;;;;;;;;;;;9.70;99.90;;;;;;4991451;28;19914;-66
2023/02/02 11:31:28;;;;;;;;;;;9.70;99.90;;;;;;4995665;28;19914;-66
2023/02/02 11:34:06;;;;;;;;;;;9.70;99.90;;;;;;4988567;28;19982;-67
2023/02/02 11:36:31;;;;;;;;;;;9.80;99.90;;;;;;4990784;28;19926;-66
2023/02/02 11:39:19;;;;;;;;;;;9.80;99.90;;;;;;4994924;28;19992;-67
2023/02/02 11:41:44;;;;;;;;;;;9.80;99.90;;;;;;4983868;28;19918;-66
2023/02/02 11:44:20;;;;;;;;;;;9.80;99.90;;;;;;4983832;28;20016;-68
2023/02/02 11:46:47;;;;;;;;;;;9.80;99.90;;;;;;4987795;28;19920;-68
2023/02/02 11:49:16;;;;;;;;;;;9.70;99.90;;;;;;4987416;28;19922;-68
2023/02/02 11:51:43;;;;;;;;;;;9.80;99.90;;;;;;4983848;28;19945;-67
2023/02/02 11:54:16;;;;;;;;;;;9.80;99.90;;;;;;4983689;28;19929;-67
2023/02/02 11:56:47;;;;;;;;;;;9.80;99.90;;;;;;4982565;28;20012;-67
2023/02/02 11:59:48;;;;;;;;;;;9.80;99.90;;;;;;4984659;28;19973;-67
2023/02/02 12:02:14;;;;;;;;;;;9.70;99.90;;;;;;4951681;28;19954;-67
2023/02/02 12:04:39;;;;;;;;;;;9.80;99.90;;;;;;4979227;28;20424;-66
2023/02/02 12:07:28;;;;;;;;;;;9.80;99.90;;;;;;4983754;28;19921;-68
2023/02/02 12:10:03;;;;;;;;;;;9.80;99.90;;;;;;4979992;28;20122;-67
2023/02/02 12:12:53;;;;;;;;;;;9.80;99.90;;;;;;4990438;28;20361;-65
2023/02/02 12:15:34;;;;;;;;;;;9.80;99.90;;;;;;4993665;28;19914;-67
2023/02/02 12:18:09;;;;;;;;;;;9.80;99.90;;;;;;4996026;28;19996;-67
2023/02/02 12:20:44;;;;;;;;;;;9.80;99.90;;;;;;4989299;28;19973;-67
2023/02/02 12:23:28;;;;;;;;;;;9.80;99.90;;;;;;4998740;28;19960;-67
2023/02/02 12:26:01;;;;;;;;;;;9.80;99.90;;;;;;4999159;28;19921;-67
2023/02/02 12:28:41;;;;;;;;;;;9.90;99.90;;;;;;5001043;28;19931;-67
2023/02/02 12:31:16;;;;;;;;;;;9.90;99.90;;;;;;5000251;28;19913;-67
2023/02/02 12:33:50;;;;;;;;;;;9.90;99.90;;;;;;4988367;28;19914;-67
2023/02/02 12:36:32;;;;;;;;;;;9.90;99.90;;;;;;4991546;28;19956;-68
2023/02/02 12:39:04;;;;;;;;;;;10.00;99.90;;;;;;4991715;28;20028;-68
2023/02/02 12:41:41;;;;;;;;;;;10.10;99.90;;;;;;4990334;28;19924;-68
2023/02/02 12:44:14;;;;;;;;;;;10.00;99.90;;;;;;4991620;28;19924;-68
2023/02/02 12:46:49;;;;;;;;;;;10.10;99.90;;;;;;4993778;28;19945;-68
2023/02/02 12:49:23;;;;;;;;;;;10.10;99.90;;;;;;4992039;28;20000;-68
2023/02/02 12:51:48;;;;;;;;;;;10.10;99.90;;;;;;4986766;28;20278;-68
2023/02/02 12:54:21;;;;;;;;;;;10.10;99.90;;;;;;4987447;28;20064;-68
2023/02/02 12:57:00;;;;;;;;;;;10.10;99.90;;;;;;4992417;28;19917;-68
2023/02/02 12:59:44;;;;;;;;;;;10.10;99.90;;;;;;4998870;28;19914;-68
2023/02/02 13:02:19;;;;;;;;;;;10.00;99.90;;;;;;4986035;28;19914;-67
2023/02/02 13:04:56;;;;;;;;;;;10.10;99.90;;;;;;4980301;28;19913;-69
2023/02/02 13:07:43;;;;;;;;;;;10.20;99.90;;;;;;4973161;28;19980;-68
2023/02/02 13:10:23;;;;;;;;;;;10.10;99.90;;;;;;4991362;28;19922;-68
2023/02/02 13:13:14;;;;;;;;;;;10.10;99.90;;;;;;4984675;28;19914;-68
2023/02/02 13:15:45;;;;;;;;;;;10.10;99.90;;;;;;4990425;28;19924;-68
2023/02/02 13:18:28;;;;;;;;;;;10.10;99.90;;;;;;4990562;28;19924;-68
2023/02/02 13:20:57;;;;;;;;;;;10.20;99.90;;;;;;4997900;28;19967;-68
2023/02/02 13:23:25;;;;;;;;;;;10.20;99.90;;;;;;4992103;28;19914;-68
2023/02/02 13:25:54;;;;;;;;;;;10.20;99.90;;;;;;4993271;28;19945;-68
2023/02/02 13:28:39;;;;;;;;;;;10.20;99.90;;;;;;4988608;28;19918;-68
2023/02/02 13:31:10;;;;;;;;;;;10.20;99.90;;;;;;4988596;28;19941;-68
2023/02/02 13:33:36;;;;;;;;;;;10.20;99.90;;;;;;4992311;28;19914;-65
2023/02/02 13:36:08;;;;;;;;;;;10.20;99.90;;;;;;4986057;28;19913;-68
2023/02/02 13:38:38;;;;;;;;;;;10.20;99.90;;;;;;4986047;28;19999;-67
2023/02/02 13:41:06;;;;;;;;;;;10.20;99.90;;;;;;4990078;28;19929;-68
2023/02/02 13:43:50;;;;;;;;;;;10.20;99.90;;;;;;4992665;28;19914;-68
2023/02/02 13:46:18;;;;;;;;;;;10.20;99.90;;;;;;4988013;28;19950;-69
2023/02/02 13:49:05;;;;;;;;;;;10.20;99.90;;;;;;4992335;28;19914;-71
2023/02/02 13:51:52;;;;;;;;;;;10.20;99.90;;;;;;4997349;28;20025;-68
2023/02/02 13:54:41;;;;;;;;;;;10.20;99.90;;;;;;4985188;28;19922;-68
2023/02/02 13:57:16;;;;;;;;;;;10.20;99.90;;;;;;4988352;28;19960;-64
2023/02/02 14:00:00;;;;;;;;;;;10.30;99.90;;;;;;4991239;28;20008;-68
2023/02/02 14:02:26;;;;;;;;;;;10.20;99.90;;;;;;4999216;28;19914;-70
2023/02/02 14:04:53;;;;;;;;;;;10.30;99.90;;;;;;4998279;28;20232;-69
2023/02/02 14:07:25;;;;;;;;;;;10.30;99.90;;;;;;5004931;28;19980;-68
2023/02/02 14:09:51;;;;;;;;;;;10.30;99.90;;;;;;5002502;28;19915;-68
2023/02/02 14:12:25;;;;;;;;;;;10.40;99.90;;;;;;5001592;28;19913;-69
2023/02/02 14:14:51;;;;;;;;;;;10.30;99.90;;;;;;5000913;28;19955;-68
2023/02/02 14:17:20;;;;;;;;;;;10.30;99.90;;;;;;4993668;28;19917;-68
2023/02/02 14:19:48;;;;;;;;;;;10.30;99.90;;;;;;5002084;28;19913;-69
2023/02/02 14:22:13;;;;;;;;;;;10.30;99.90;;;;;;4999911;28;20264;-67
2023/02/02 14:24:42;;;;;;;;;;;10.30;99.90;;;;;;5001586;28;19937;-67
2023/02/02 14:27:15;;;;;;;;;;;10.30;99.90;;;;;;4981941;28;19953;-68
2023/02/02 14:29:44;;;;;;;;;;;10.30;99.90;;;;;;5004114;28;20441;-69
2023/02/02 14:32:27;;;;;;;;;;;10.20;99.90;;;;;;5001639;28;19951;-68
2023/02/02 14:34:58;;;;;;;;;;;10.30;99.90;;;;;;4998390;28;19909;-69
2023/02/02 14:37:24;;;;;;;;;;;10.30;99.90;;;;;;4999200;28;19922;-68
2023/02/02 14:39:58;;;;;;;;;;;10.30;99.90;;;;;;4995505;28;19921;-68
2023/02/02 14:43:43;;;;;;;;;;;10.40;99.90;;;;;;4994352;28;19913;-67
2023/02/02 14:45:38;;;;;;;;;;;10.30;99.90;;;;;;4978379;28;19914;-74
2023/02/02 14:48:10;;;;;;;;;;;10.30;99.90;;;;;;4992356;28;20342;-68
2023/02/02 14:50:39;;;;;;;;;;;10.30;99.90;;;;;;4992328;28;20397;-68
2023/02/02 14:53:11;;;;;;;;;;;10.30;99.90;;;;;;4990422;28;19972;-68